Time;durP1;ratioP1;P1;durP2;ratioP2;P2;SDS_P1;SDS_P2;PMS_P1;PMS_P2;Temp;Humidity;BMP_temperature;BMP_pressure;BME280_temperature;BME280_humidity;BME280_pressure;Samples;Min_cycle;Max_cycle;Signal;HPM_P1;HPM_P2
2022/11/23 00:00:35;;;;;;;32.78;14.07;;;4.40;85.80;;;;;;4992941;28;20088;-58
2022/11/23 00:03:00;;;;;;;24.58;11.70;;;4.40;85.50;;;;;;4993195;28;20089;-60
2022/11/23 00:05:28;;;;;;;25.83;11.73;;;4.50;85.70;;;;;;4996246;28;20023;-60
2022/11/23 00:07:53;;;;;;;26.27;12.70;;;4.40;85.40;;;;;;4996402;28;20044;-61
2022/11/23 00:10:19;;;;;;;25.20;11.27;;;4.40;85.20;;;;;;4992214;28;20457;-59
2022/11/23 00:12:45;;;;;;;25.58;12.88;;;4.40;85.30;;;;;;4996471;28;20333;-62
2022/11/23 00:15:12;;;;;;;26.40;12.47;;;4.30;85.30;;;;;;5000666;28;20044;-59
2022/11/23 00:17:38;;;;;;;30.98;15.00;;;4.20;85.40;;;;;;4985264;28;20769;-59
2022/11/23 00:20:06;;;;;;;29.83;13.70;;;4.20;85.60;;;;;;4990866;28;20077;-57
2022/11/23 00:22:32;;;;;;;26.45;13.70;;;4.20;85.60;;;;;;5008385;28;20089;-63
2022/11/23 00:24:57;;;;;;;37.30;15.57;;;4.20;86.00;;;;;;5000746;28;20029;-58
2022/11/23 00:27:23;;;;;;;23.70;13.03;;;4.20;85.90;;;;;;4987902;28;20030;-57
2022/11/23 00:29:49;;;;;;;33.50;14.98;;;4.10;85.70;;;;;;4994676;28;20031;-56
2022/11/23 00:32:14;;;;;;;29.03;13.43;;;4.20;85.80;;;;;;4988924;28;20042;-57
2022/11/23 00:34:40;;;;;;;32.47;13.95;;;4.10;85.70;;;;;;5029099;28;20129;-57
2022/11/23 00:37:05;;;;;;;28.10;13.63;;;4.10;85.80;;;;;;4990983;28;20034;-58
2022/11/23 00:39:32;;;;;;;29.47;14.13;;;4.10;85.80;;;;;;4995038;28;20511;-57
2022/11/23 00:41:57;;;;;;;23.05;11.45;;;4.10;85.90;;;;;;4993277;28;20135;-60
2022/11/23 00:44:23;;;;;;;25.77;11.57;;;4.20;85.40;;;;;;4994854;28;20078;-57
2022/11/23 00:46:48;;;;;;;27.80;12.33;;;4.20;85.30;;;;;;4996987;28;20030;-57
2022/11/23 00:49:14;;;;;;;30.43;12.37;;;4.20;85.40;;;;;;4996425;28;20026;-57
2022/11/23 00:51:40;;;;;;;22.50;10.80;;;4.20;86.20;;;;;;4993935;28;20033;-59
2022/11/23 00:54:06;;;;;;;19.47;11.17;;;4.20;86.00;;;;;;4994227;28;20069;-60
2022/11/23 00:56:33;;;;;;;25.23;11.95;;;4.20;85.90;;;;;;4994558;28;20015;-59
2022/11/23 00:59:00;;;;;;;20.63;10.20;;;4.20;85.90;;;;;;4995889;28;20049;-60
2022/11/23 01:01:29;;;;;;;18.05;11.20;;;4.20;85.70;;;;;;4996219;28;20101;-57
2022/11/23 01:03:57;;;;;;;20.20;10.27;;;4.30;85.50;;;;;;4993228;28;20110;-61
2022/11/23 01:06:40;;;;;;;25.15;10.40;;;4.30;85.50;;;;;;4986940;28;20038;-63
2022/11/23 01:09:17;;;;;;;22.17;9.02;;;4.30;85.70;;;;;;4995570;28;20478;-62
2022/11/23 01:11:43;;;;;;;16.58;8.73;;;4.30;85.40;;;;;;4997918;28;20030;-64
2022/11/23 01:14:09;;;;;;;;;;;4.40;86.10;;;;;;4991361;28;20119;-64
2022/11/23 01:16:37;;;;;;;23.92;9.82;;;4.50;85.70;;;;;;4996271;28;20413;-65
2022/11/23 01:19:06;;;;;;;18.70;8.77;;;4.50;85.90;;;;;;4994841;28;20120;-65
2022/11/23 01:21:34;;;;;;;20.70;9.05;;;4.60;85.30;;;;;;4995630;28;20026;-61
2022/11/23 01:24:02;;;;;;;21.65;9.07;;;4.60;85.00;;;;;;4993073;28;20030;-57
2022/11/23 01:26:28;;;;;;;20.33;8.68;;;4.60;85.00;;;;;;4993839;28;20030;-57
2022/11/23 01:28:53;;;;;;;20.80;8.33;;;4.60;84.90;;;;;;4996474;28;20371;-62
2022/11/23 01:31:21;;;;;;;17.67;8.13;;;4.50;85.20;;;;;;4994505;28;20026;-60
2022/11/23 01:33:51;;;;;;;24.90;8.95;;;4.50;84.90;;;;;;4995556;28;20487;-60
2022/11/23 01:36:19;;;;;;;19.63;9.55;;;4.50;85.30;;;;;;4993305;28;20030;-60
2022/11/23 01:38:46;;;;;;;26.15;11.32;;;4.50;85.10;;;;;;4990270;28;20026;-60
2022/11/23 01:41:15;;;;;;;22.95;10.77;;;4.40;85.20;;;;;;4993722;28;20030;-57
2022/11/23 01:43:40;;;;;;;18.52;9.25;;;4.40;85.20;;;;;;4991361;28;20032;-61
2022/11/23 01:46:06;;;;;;;24.15;9.43;;;4.50;85.30;;;;;;4989626;28;20034;-60
2022/11/23 01:48:43;;;;;;;18.05;9.30;;;4.40;85.00;;;;;;4991348;28;20030;-65
2022/11/23 01:51:13;;;;;;;25.80;9.45;;;4.50;85.30;;;;;;4990819;28;20026;-61
2022/11/23 01:53:41;;;;;;;19.70;9.50;;;4.50;85.30;;;;;;4985848;28;20050;-60
2022/11/23 01:56:10;;;;;;;17.05;8.38;;;4.50;85.50;;;;;;4995729;28;20030;-59
2022/11/23 01:58:39;;;;;;;19.67;9.07;;;4.40;85.60;;;;;;4989338;28;20033;-60
2022/11/23 02:01:05;;;;;;;24.52;9.50;;;4.30;85.90;;;;;;4989061;28;20033;-60
2022/11/23 02:03:31;;;;;;;;;;;4.30;86.40;;;;;;4993491;28;20105;-60
2022/11/23 02:06:01;;;;;;;21.52;9.05;;;4.30;86.60;;;;;;4995005;28;19928;-60
2022/11/23 02:08:28;;;;;;;15.90;8.55;;;4.30;86.70;;;;;;4993089;28;20011;-60
2022/11/23 02:10:56;;;;;;;17.75;9.85;;;4.30;86.50;;;;;;4991933;28;20104;-59
2022/11/23 02:13:23;;;;;;;21.10;9.30;;;4.40;86.70;;;;;;4996752;28;20038;-60
2022/11/23 02:15:49;;;;;;;21.70;9.68;;;4.40;86.10;;;;;;4994774;28;20466;-63
2022/11/23 02:18:20;;;;;;;28.20;9.23;;;4.40;85.60;;;;;;4985460;28;20105;-65
2022/11/23 02:20:46;;;;;;;20.92;8.70;;;4.30;85.90;;;;;;4988594;28;20030;-57
2022/11/23 02:23:30;;;;;;;16.77;8.48;;;4.30;86.10;;;;;;4994010;28;20117;-60
2022/11/23 02:26:09;;;;;;;15.95;7.20;;;4.40;85.70;;;;;;4991628;28;20153;-57
2022/11/23 02:28:41;;;;;;;14.77;7.63;;;4.50;85.70;;;;;;4990825;28;20026;-61
2022/11/23 02:31:06;;;;;;;15.07;6.95;;;4.50;85.30;;;;;;4991144;28;20030;-58
2022/11/23 02:33:32;;;;;;;16.17;7.80;;;4.50;85.00;;;;;;4989215;28;20038;-59
2022/11/23 02:36:00;;;;;;;10.80;6.47;;;4.50;85.20;;;;;;4994258;28;20056;-57
2022/11/23 02:38:29;;;;;;;17.85;7.88;;;4.50;85.00;;;;;;4991741;28;20026;-57
2022/11/23 02:40:55;;;;;;;15.18;6.78;;;4.50;85.00;;;;;;4984981;28;20045;-58
2022/11/23 02:43:21;;;;;;;20.00;8.05;;;4.50;84.90;;;;;;4989258;28;20030;-56
2022/11/23 02:46:02;;;;;;;14.95;7.88;;;4.60;84.70;;;;;;4996599;28;20034;-57
2022/11/23 02:48:28;;;;;;;15.30;7.63;;;4.50;84.90;;;;;;4989734;28;20096;-56
2022/11/23 02:50:57;;;;;;;17.47;7.57;;;4.50;85.70;;;;;;4994881;28;20029;-57
2022/11/23 02:53:22;;;;;;;14.88;7.07;;;4.40;86.20;;;;;;5000665;28;20242;-56
2022/11/23 02:55:48;;;;;;;14.83;6.93;;;4.40;85.70;;;;;;5008678;28;20104;-60
2022/11/23 02:58:13;;;;;;;12.60;7.47;;;4.30;86.00;;;;;;4986728;28;20026;-59
2022/11/23 03:00:39;;;;;;;14.33;5.97;;;4.30;85.90;;;;;;4991361;28;20556;-58
2022/11/23 03:03:05;;;;;;;18.33;7.37;;;4.40;85.80;;;;;;4991350;28;20085;-58
2022/11/23 03:05:30;;;;;;;13.10;5.68;;;4.30;85.70;;;;;;4996030;28;20272;-58
2022/11/23 03:07:57;;;;;;;16.17;6.80;;;4.30;85.80;;;;;;4986286;28;20458;-63
2022/11/23 03:10:22;;;;;;;15.45;5.78;;;4.40;85.90;;;;;;4991868;28;20189;-57
2022/11/23 03:12:48;;;;;;;13.52;6.57;;;4.40;85.90;;;;;;4993654;28;20045;-58
2022/11/23 03:15:14;;;;;;;15.83;5.97;;;4.30;86.10;;;;;;4998308;28;20036;-63
2022/11/23 03:17:39;;;;;;;13.23;5.70;;;4.40;85.90;;;;;;4985947;28;20566;-60
2022/11/23 03:20:05;;;;;;;13.83;6.30;;;4.40;85.80;;;;;;4992762;28;20679;-57
2022/11/23 03:22:32;;;;;;;13.93;5.85;;;4.50;85.80;;;;;;4997068;28;20064;-59
2022/11/23 03:24:58;;;;;;;10.25;5.13;;;4.50;85.50;;;;;;4997703;28;20038;-56
2022/11/23 03:27:23;;;;;;;16.43;5.93;;;4.50;85.30;;;;;;4991721;28;20038;-56
2022/11/23 03:29:49;;;;;;;15.77;7.13;;;4.60;84.90;;;;;;4993812;28;20482;-59
2022/11/23 03:32:14;;;;;;;15.97;6.77;;;4.60;84.80;;;;;;4988262;28;20026;-57
2022/11/23 03:34:40;;;;;;;14.07;6.03;;;4.60;84.60;;;;;;4993718;28;20029;-61
2022/11/23 03:37:06;;;;;;;12.97;6.60;;;4.40;84.90;;;;;;4994025;28;20494;-57
2022/11/23 03:39:31;;;;;;;11.63;6.13;;;4.40;85.10;;;;;;4990598;28;20034;-58
2022/11/23 03:41:57;;;;;;;16.80;5.87;;;4.50;84.70;;;;;;4991344;28;20038;-57
2022/11/23 03:44:23;;;;;;;18.70;7.57;;;4.30;85.00;;;;;;4998155;28;20168;-58
2022/11/23 03:46:49;;;;;;;15.47;7.23;;;4.30;85.00;;;;;;4997429;28;20068;-59
2022/11/23 03:49:15;;;;;;;13.88;5.80;;;4.40;84.80;;;;;;4996550;28;20283;-56
2022/11/23 03:51:40;;;;;;;12.35;5.03;;;4.30;85.60;;;;;;4989993;28;20121;-58
2022/11/23 03:54:06;;;;;;;12.10;4.87;;;4.40;85.70;;;;;;4992392;28;20819;-59
2022/11/23 03:56:32;;;;;;;15.50;4.60;;;4.40;86.00;;;;;;4992392;28;20084;-58
2022/11/23 03:58:57;;;;;;;10.90;4.90;;;4.50;86.10;;;;;;4990717;28;20109;-57
2022/11/23 04:01:23;;;;;;;11.80;5.37;;;4.50;86.20;;;;;;4988302;28;20034;-58
2022/11/23 04:03:48;;;;;;;16.97;5.43;;;4.50;85.90;;;;;;4995957;28;20061;-57
2022/11/23 04:06:14;;;;;;;9.40;4.43;;;4.50;85.70;;;;;;4996770;28;20540;-61
2022/11/23 04:08:40;;;;;;;10.35;4.88;;;4.50;85.70;;;;;;4994713;28;20072;-58
2022/11/23 04:11:05;;;;;;;10.63;4.37;;;4.60;85.70;;;;;;4990857;28;20049;-60
2022/11/23 04:13:31;;;;;;;11.90;4.50;;;4.60;85.60;;;;;;4992885;28;20059;-57
2022/11/23 04:15:56;;;;;;;14.37;5.87;;;4.60;85.40;;;;;;4989811;28;20030;-56
2022/11/23 04:18:22;;;;;;;9.33;4.23;;;4.60;85.00;;;;;;5002307;28;20044;-60
2022/11/23 04:20:48;;;;;;;9.87;4.80;;;4.60;85.10;;;;;;4990079;28;20484;-57
2022/11/23 04:23:13;;;;;;;12.90;4.23;;;4.70;85.00;;;;;;4991515;28;20041;-58
2022/11/23 04:25:39;;;;;;;16.93;6.93;;;4.70;84.60;;;;;;4993068;28;20041;-57
2022/11/23 04:28:04;;;;;;;13.60;6.13;;;4.70;84.90;;;;;;4997117;28;20029;-63
2022/11/23 04:30:30;;;;;;;13.00;6.03;;;4.80;84.60;;;;;;4992417;28;20035;-57
2022/11/23 04:32:56;;;;;;;8.95;5.00;;;4.80;84.50;;;;;;4993402;28;20045;-56
2022/11/23 04:35:21;;;;;;;18.07;6.70;;;4.70;84.50;;;;;;4995024;28;20035;-57
2022/11/23 04:37:47;;;;;;;15.50;7.00;;;4.60;84.50;;;;;;4987183;28;20037;-56
2022/11/23 04:40:13;;;;;;;14.73;6.80;;;4.60;84.60;;;;;;4993214;28;20030;-57
2022/11/23 04:42:39;;;;;;;12.38;6.22;;;4.60;84.10;;;;;;4991672;28;20034;-57
2022/11/23 04:45:05;;;;;;;11.50;5.50;;;4.50;84.10;;;;;;4997872;28;20034;-60
2022/11/23 04:47:32;;;;;;;11.05;5.97;;;4.50;85.10;;;;;;4998602;28;20032;-56
2022/11/23 04:49:57;;;;;;;17.58;5.63;;;4.50;84.90;;;;;;4990635;28;20123;-59
2022/11/23 04:52:23;;;;;;;10.87;6.00;;;4.50;85.40;;;;;;4991300;28;20629;-57
2022/11/23 04:54:48;;;;;;;14.83;6.27;;;4.30;85.70;;;;;;4998315;28;20014;-56
2022/11/23 04:57:14;;;;;;;14.50;5.87;;;4.40;85.50;;;;;;4993108;28;20030;-57
2022/11/23 04:59:40;;;;;;;15.23;6.13;;;4.40;85.20;;;;;;4999471;28;20030;-59
2022/11/23 05:02:05;;;;;;;19.13;6.43;;;4.40;85.30;;;;;;4990837;28;20038;-56
2022/11/23 05:04:33;;;;;;;21.73;8.20;;;4.30;85.40;;;;;;4988824;28;20023;-57
2022/11/23 05:06:59;;;;;;;11.90;5.88;;;4.20;85.60;;;;;;4996817;28;20058;-57
2022/11/23 05:09:24;;;;;;;11.33;5.90;;;4.20;86.00;;;;;;4994153;28;20487;-57
2022/11/23 05:11:50;;;;;;;12.97;5.83;;;4.30;85.20;;;;;;4993330;28;20081;-58
2022/11/23 05:14:16;;;;;;;15.47;6.23;;;4.30;85.80;;;;;;4988312;28;20302;-57
2022/11/23 05:16:41;;;;;;;15.40;6.03;;;4.30;85.60;;;;;;4990367;28;20497;-57
2022/11/23 05:19:07;;;;;;;11.90;5.67;;;4.30;86.10;;;;;;4992579;28;20462;-59
2022/11/23 05:21:32;;;;;;;14.17;6.17;;;4.30;86.50;;;;;;4992550;28;20449;-60
2022/11/23 05:23:58;;;;;;;11.97;5.93;;;4.40;86.30;;;;;;4989649;28;20560;-57
2022/11/23 05:26:24;;;;;;;11.43;5.37;;;4.40;86.20;;;;;;4992448;28;20034;-59
2022/11/23 05:28:49;;;;;;;16.47;5.90;;;4.50;85.80;;;;;;4996867;28;20053;-57
2022/11/23 05:31:15;;;;;;;11.30;5.57;;;4.40;86.20;;;;;;4991497;28;20180;-56
2022/11/23 05:33:40;;;;;;;11.35;5.97;;;4.60;86.60;;;;;;4990569;28;20049;-57
2022/11/23 05:36:06;;;;;;;17.83;5.83;;;4.60;86.00;;;;;;4994394;28;20506;-57
2022/11/23 05:38:32;;;;;;;10.23;4.97;;;4.60;85.60;;;;;;4992645;28;20140;-56
2022/11/23 05:40:58;;;;;;;10.20;4.43;;;4.60;86.30;;;;;;4994725;28;20038;-57
2022/11/23 05:43:24;;;;;;;10.93;5.23;;;4.70;86.10;;;;;;4993044;28;20034;-57
2022/11/23 05:45:49;;;;;;;9.75;4.32;;;4.80;86.20;;;;;;4999938;28;20122;-58
2022/11/23 05:48:15;;;;;;;8.27;4.97;;;4.80;85.90;;;;;;4988832;28;20109;-56
2022/11/23 05:50:41;;;;;;;17.55;6.15;;;4.80;85.70;;;;;;4997599;28;20032;-57
2022/11/23 05:53:07;;;;;;;10.60;5.30;;;4.80;86.10;;;;;;4989034;28;20035;-58
2022/11/23 05:55:33;;;;;;;12.00;6.13;;;4.80;85.70;;;;;;5000618;28;20426;-60
2022/11/23 05:58:00;;;;;;;13.07;4.17;;;4.90;85.60;;;;;;4992634;28;20026;-56
2022/11/23 06:00:25;;;;;;;8.43;4.75;;;5.00;85.70;;;;;;4994300;28;20030;-56
2022/11/23 06:02:51;;;;;;;11.03;5.70;;;5.00;85.30;;;;;;4990826;28;20030;-58
2022/11/23 06:05:17;;;;;;;9.47;5.40;;;5.00;85.40;;;;;;4992953;28;20042;-59
2022/11/23 06:07:42;;;;;;;17.53;6.33;;;5.00;85.90;;;;;;4993359;28;20113;-57
2022/11/23 06:10:09;;;;;;;11.10;5.53;;;5.00;85.90;;;;;;4992001;28;20058;-57
2022/11/23 06:12:35;;;;;;;11.80;5.93;;;5.00;85.90;;;;;;4992024;28;20029;-59
2022/11/23 06:15:00;;;;;;;20.60;5.90;;;5.00;85.60;;;;;;4991697;28;20026;-57
2022/11/23 06:17:26;;;;;;;15.53;6.33;;;5.00;85.60;;;;;;4987850;28;20022;-60
2022/11/23 06:19:52;;;;;;;13.87;5.93;;;5.00;85.60;;;;;;4995767;28;20019;-57
2022/11/23 06:22:17;;;;;;;15.90;6.77;;;5.00;85.80;;;;;;4991657;28;20030;-56
2022/11/23 06:24:43;;;;;;;19.43;7.10;;;5.00;85.80;;;;;;4984523;28;20026;-57
2022/11/23 06:27:09;;;;;;;14.97;6.60;;;5.00;85.80;;;;;;4985214;28;20027;-57
2022/11/23 06:29:34;;;;;;;14.25;6.53;;;5.00;85.70;;;;;;5001057;28;20030;-57
2022/11/23 06:32:00;;;;;;;17.20;7.33;;;5.00;86.00;;;;;;4992395;28;20034;-57
2022/11/23 06:34:26;;;;;;;12.53;6.60;;;5.10;85.80;;;;;;4984150;28;20048;-57
2022/11/23 06:36:51;;;;;;;15.20;7.67;;;5.10;85.90;;;;;;4988483;28;20549;-58
2022/11/23 06:39:17;;;;;;;19.13;7.97;;;5.10;85.90;;;;;;4994919;28;20052;-58
2022/11/23 06:41:43;;;;;;;12.20;6.65;;;5.10;85.80;;;;;;4991201;28;20038;-59
2022/11/23 06:44:08;;;;;;;18.20;7.43;;;5.00;86.30;;;;;;4983799;28;20514;-60
2022/11/23 06:46:34;;;;;;;11.40;6.87;;;5.00;86.20;;;;;;4989702;28;20030;-57
2022/11/23 06:48:59;;;;;;;13.57;7.40;;;5.00;86.20;;;;;;4992837;28;20667;-57
2022/11/23 06:51:25;;;;;;;16.40;7.33;;;5.00;86.10;;;;;;4989961;28;20030;-51
2022/11/23 06:53:51;;;;;;;18.27;7.97;;;5.00;85.90;;;;;;4986265;28;20538;-55
2022/11/23 06:56:16;;;;;;;14.13;8.03;;;5.10;86.30;;;;;;4989229;28;20026;-53
2022/11/23 06:58:42;;;;;;;18.03;8.10;;;5.10;86.50;;;;;;4994347;28;20109;-49
2022/11/23 07:01:09;;;;;;;19.43;8.80;;;5.10;86.30;;;;;;4990391;28;20105;-52
2022/11/23 07:03:35;;;;;;;19.10;8.52;;;5.10;86.70;;;;;;4997056;28;20025;-52
2022/11/23 07:06:05;;;;;;;17.83;9.98;;;5.10;86.70;;;;;;4987624;28;20034;-49
2022/11/23 07:08:31;;;;;;;25.20;11.07;;;5.10;86.60;;;;;;4991812;28;20038;-51
2022/11/23 07:11:05;;;;;;;15.60;8.38;;;5.20;86.70;;;;;;4989945;28;20042;-53
2022/11/23 07:13:31;;;;;;;18.10;9.10;;;5.20;86.80;;;;;;4986529;28;20087;-56
2022/11/23 07:15:58;;;;;;;19.10;7.65;;;5.20;86.50;;;;;;4986165;28;20383;-55
2022/11/23 07:18:24;;;;;;;16.90;7.88;;;5.20;86.60;;;;;;4986289;28;20035;-56
2022/11/23 07:20:50;;;;;;;15.80;7.78;;;5.30;86.60;;;;;;4984139;28;20080;-59
2022/11/23 07:23:15;;;;;;;12.27;7.00;;;5.30;86.30;;;;;;4990991;28;20026;-56
2022/11/23 07:25:41;;;;;;;13.77;7.53;;;5.30;86.40;;;;;;4991049;28;20025;-56
2022/11/23 07:28:07;;;;;;;17.43;7.33;;;5.40;85.80;;;;;;4990392;28;20034;-56
2022/11/23 07:30:34;;;;;;;18.88;9.60;;;5.50;86.10;;;;;;4988157;28;20037;-57
2022/11/23 07:33:07;;;;;;;19.65;10.15;;;5.60;85.80;;;;;;4985201;28;20053;-53
2022/11/23 07:35:33;;;;;;;17.70;8.65;;;5.60;85.60;;;;;;4981779;28;20080;-59
2022/11/23 07:37:59;;;;;;;;;;;5.60;85.70;;;;;;4988369;28;20034;-55
2022/11/23 07:40:25;;;;;;;23.08;9.85;;;5.70;85.50;;;;;;4991864;28;19917;-59
2022/11/23 07:42:51;;;;;;;29.27;11.43;;;5.70;85.50;;;;;;4991214;28;20500;-59
2022/11/23 07:45:17;;;;;;;23.37;9.23;;;5.80;85.40;;;;;;4986081;28;20054;-55
2022/11/23 07:47:44;;;;;;;17.30;8.95;;;5.80;85.40;;;;;;4988148;28;20112;-54
2022/11/23 07:50:11;;;;;;;22.50;9.35;;;5.80;85.50;;;;;;4992196;28;20029;-55
2022/11/23 07:52:38;;;;;;;18.13;9.70;;;5.90;85.20;;;;;;4994157;28;20414;-52
2022/11/23 07:55:05;;;;;;;14.77;7.55;;;5.90;85.10;;;;;;4992289;28;20026;-58
2022/11/23 07:57:30;;;;;;;19.85;8.38;;;5.90;84.80;;;;;;4991717;28;20099;-63
2022/11/23 07:59:56;;;;;;;16.47;8.20;;;5.90;84.80;;;;;;4991852;28;20101;-55
2022/11/23 08:02:22;;;;;;;16.40;8.77;;;5.90;84.90;;;;;;4995356;28;20034;-58
2022/11/23 08:04:47;;;;;;;17.23;8.43;;;6.00;85.00;;;;;;4988955;28;20026;-52
2022/11/23 08:07:13;;;;;;;18.83;8.77;;;6.00;85.20;;;;;;4987320;28;20501;-60
2022/11/23 08:09:39;;;;;;;13.90;8.05;;;6.10;84.80;;;;;;5003941;28;20429;-62
2022/11/23 08:12:05;;;;;;;16.13;7.80;;;6.10;85.50;;;;;;4992172;28;20049;-57
2022/11/23 08:14:31;;;;;;;20.42;9.18;;;6.20;85.40;;;;;;4989848;28;20763;-56
2022/11/23 08:16:56;;;;;;;22.17;8.70;;;6.20;85.60;;;;;;4993786;28;20040;-58
2022/11/23 08:19:22;;;;;;;18.00;7.60;;;6.30;85.30;;;;;;5001066;28;20026;-63
2022/11/23 08:21:48;;;;;;;16.83;7.57;;;6.30;85.00;;;;;;4989874;28;20037;-58
2022/11/23 08:24:13;;;;;;;17.67;7.53;;;6.40;84.90;;;;;;4987102;28;20030;-57
2022/11/23 08:26:39;;;;;;;12.27;7.07;;;6.40;84.70;;;;;;4995797;28;20025;-58
2022/11/23 08:29:05;;;;;;;18.20;8.13;;;6.50;85.30;;;;;;4995485;28;20080;-55
2022/11/23 08:31:31;;;;;;;17.88;7.97;;;6.60;84.90;;;;;;4992284;28;20100;-58
2022/11/23 08:33:57;;;;;;;19.92;9.13;;;6.60;85.20;;;;;;5005107;28;20049;-56
2022/11/23 08:36:22;;;;;;;16.10;9.48;;;6.60;85.10;;;;;;4993490;28;20542;-56
2022/11/23 08:38:50;;;;;;;17.53;9.70;;;6.70;84.80;;;;;;4994756;28;20038;-56
2022/11/23 08:41:19;;;;;;;15.82;8.43;;;6.70;84.80;;;;;;4994454;28;20573;-56
2022/11/23 08:43:48;;;;;;;15.95;8.20;;;6.80;84.80;;;;;;4999851;28;20072;-62
2022/11/23 08:46:14;;;;;;;17.90;8.48;;;6.80;84.40;;;;;;4996850;28;20549;-57
2022/11/23 08:48:40;;;;;;;13.30;7.83;;;6.90;84.80;;;;;;5000145;28;20105;-56
2022/11/23 08:51:06;;;;;;;16.40;8.55;;;6.90;84.90;;;;;;4994126;28;20824;-60
2022/11/23 08:53:32;;;;;;;15.98;8.32;;;6.90;84.60;;;;;;4994176;28;20120;-65
2022/11/23 08:56:01;;;;;;;14.85;7.43;;;7.00;84.70;;;;;;5000653;28;20129;-56
2022/11/23 08:58:27;;;;;;;13.77;7.35;;;7.00;84.20;;;;;;4992985;28;20069;-64
2022/11/23 09:00:53;;;;;;;15.80;7.63;;;7.10;84.50;;;;;;4990623;28;20054;-57
2022/11/23 09:03:18;;;;;;;16.87;6.73;;;7.20;85.00;;;;;;4990929;28;20278;-57
2022/11/23 09:05:44;;;;;;;13.98;7.47;;;7.20;84.20;;;;;;4989939;28;20069;-58
2022/11/23 09:08:10;;;;;;;14.83;7.63;;;7.30;84.80;;;;;;4985840;28;20125;-58
2022/11/23 09:10:37;;;;;;;14.05;6.30;;;7.30;84.10;;;;;;4999311;28;20661;-56
2022/11/23 09:13:03;;;;;;;9.10;6.40;;;7.30;83.60;;;;;;4987717;28;20100;-55
2022/11/23 09:15:29;;;;;;;14.77;6.53;;;7.40;83.70;;;;;;4996192;28;20483;-56
2022/11/23 09:17:56;;;;;;;11.47;6.37;;;7.40;83.90;;;;;;4994145;28;20038;-56
2022/11/23 09:20:22;;;;;;;10.93;6.60;;;7.40;84.00;;;;;;4998609;28;20461;-56
2022/11/23 09:22:51;;;;;;;10.20;6.53;;;7.50;84.10;;;;;;4990455;28;20033;-55
2022/11/23 09:25:18;;;;;;;14.00;6.80;;;7.50;84.60;;;;;;4996417;28;20030;-58
2022/11/23 09:27:44;;;;;;;12.52;5.57;;;7.60;83.70;;;;;;4991047;28;20034;-56
2022/11/23 09:30:11;;;;;;;10.27;5.95;;;7.60;83.60;;;;;;4996308;28;20029;-55
2022/11/23 09:32:36;;;;;;;12.70;6.10;;;7.70;84.50;;;;;;4992898;28;20110;-55
2022/11/23 09:35:02;;;;;;;14.47;6.53;;;7.70;84.20;;;;;;4994910;28;20128;-56
2022/11/23 09:37:28;;;;;;;17.00;7.90;;;7.70;83.90;;;;;;4990228;28;20026;-54
2022/11/23 09:39:54;;;;;;;12.53;6.43;;;7.80;84.30;;;;;;4995749;28;20046;-55
2022/11/23 09:42:33;;;;;;;17.50;6.50;;;7.80;83.50;;;;;;4989655;28;20042;-57
2022/11/23 09:45:33;;;;;;;15.02;6.68;;;7.80;83.90;;;;;;4990284;28;20046;-56
2022/11/23 09:48:18;;;;;;;15.68;7.22;;;7.90;85.10;;;;;;4991191;28;20037;-55
2022/11/23 09:50:51;;;;;;;12.68;6.60;;;7.90;84.90;;;;;;4987009;28;20038;-54
2022/11/23 09:53:30;;;;;;;14.05;6.68;;;7.90;85.70;;;;;;4990888;28;20078;-55
2022/11/23 09:55:56;;;;;;;12.57;6.15;;;7.90;85.80;;;;;;4988013;28;20022;-53
2022/11/23 09:58:27;;;;;;;12.05;6.90;;;7.90;85.90;;;;;;4988040;28;20442;-55
2022/11/23 10:01:14;;;;;;;16.92;6.43;;;8.00;85.90;;;;;;4986286;28;20308;-55
2022/11/23 10:03:42;;;;;;;16.40;6.83;;;8.00;85.10;;;;;;4987305;28;20149;-55
2022/11/23 10:06:30;;;;;;;11.82;5.38;;;8.00;85.20;;;;;;4986125;28;20305;-56
2022/11/23 10:09:08;;;;;;;11.25;5.07;;;8.00;85.30;;;;;;4985141;28;20473;-55
2022/11/23 10:11:58;;;;;;;10.18;5.03;;;8.10;85.70;;;;;;4984516;28;20449;-55
2022/11/23 10:14:27;;;;;;;10.23;5.22;;;8.20;85.40;;;;;;4995159;28;20498;-64
2022/11/23 10:17:23;;;;;;;11.88;5.38;;;8.20;85.20;;;;;;4993805;28;20031;-56
2022/11/23 10:20:17;;;;;;;9.75;4.63;;;8.30;85.20;;;;;;4988906;28;20028;-56
2022/11/23 10:22:57;;;;;;;12.95;4.97;;;8.30;85.80;;;;;;4984422;28;20023;-59
2022/11/23 10:25:24;;;;;;;12.57;5.28;;;8.30;84.90;;;;;;4990952;28;20034;-51
2022/11/23 10:27:54;;;;;;;11.13;4.80;;;8.40;85.50;;;;;;4989662;28;20088;-55
2022/11/23 10:30:20;;;;;;;9.05;4.18;;;8.40;84.70;;;;;;4991543;28;20025;-60
2022/11/23 10:33:12;;;;;;;8.93;4.13;;;8.40;85.10;;;;;;4988880;28;20034;-56
2022/11/23 10:35:38;;;;;;;9.88;4.22;;;8.50;84.70;;;;;;4979508;28;20285;-57
2022/11/23 10:38:15;;;;;;;10.13;4.17;;;8.50;84.30;;;;;;4978242;28;20038;-56
2022/11/23 10:41:03;;;;;;;7.97;4.07;;;8.50;83.90;;;;;;4996545;28;21079;-57
2022/11/23 10:43:49;;;;;;;11.10;3.42;;;8.60;83.60;;;;;;4985115;28;20511;-57
2022/11/23 10:46:33;;;;;;;8.32;3.63;;;8.60;83.30;;;;;;4983162;28;20483;-56
2022/11/23 10:49:33;;;;;;;5.03;3.03;;;8.70;83.10;;;;;;4991539;28;20041;-60
2022/11/23 10:52:04;;;;;;;6.13;3.70;;;8.80;83.90;;;;;;4991553;28;20578;-55
2022/11/23 10:54:45;;;;;;;9.98;4.40;;;8.80;83.50;;;;;;4986696;28;20383;-56
2022/11/23 10:57:32;;;;;;;6.53;3.45;;;8.90;84.50;;;;;;4994437;28;20502;-55
2022/11/23 11:00:03;;;;;;;6.97;3.55;;;9.00;82.30;;;;;;4989015;28;20526;-55
2022/11/23 11:02:42;;;;;;;8.32;3.75;;;9.10;82.20;;;;;;4987928;28;20074;-65
2022/11/23 11:05:36;;;;;;;5.30;3.20;;;9.10;82.50;;;;;;4987686;28;20027;-63
2022/11/23 11:08:16;;;;;;;6.85;3.22;;;9.20;82.00;;;;;;4994730;28;20399;-64
2022/11/23 11:10:48;;;;;;;11.75;2.92;;;9.30;82.20;;;;;;4993470;28;20030;-65
2022/11/23 11:13:29;;;;;;;4.53;2.63;;;9.30;81.30;;;;;;4991429;28;20070;-58
2022/11/23 11:16:00;;;;;;;7.03;2.70;;;9.30;80.10;;;;;;4996424;28;20035;-57
2022/11/23 11:18:32;;;;;;;7.20;2.30;;;9.40;79.90;;;;;;4988849;28;20022;-65
2022/11/23 11:21:04;;;;;;;8.50;3.42;;;9.40;81.00;;;;;;5017921;28;20785;-64
2022/11/23 11:23:31;;;;;;;9.00;3.33;;;9.50;80.90;;;;;;4985348;28;20042;-57
2022/11/23 11:26:15;;;;;;;5.82;2.90;;;9.60;80.90;;;;;;4988383;28;20474;-57
2022/11/23 11:28:42;;;;;;;7.43;2.53;;;9.70;81.20;;;;;;4987260;28;20036;-57
2022/11/23 11:31:54;;;;;;;7.28;2.22;;;9.80;80.20;;;;;;4990520;28;20031;-64
2022/11/23 11:34:30;;;;;;;4.90;2.50;;;9.80;80.10;;;;;;4985483;28;20064;-58
2022/11/23 11:37:12;;;;;;;4.93;2.07;;;10.20;82.00;;;;;;4991062;28;20661;-58
2022/11/23 11:39:38;;;;;;;3.55;1.90;;;10.20;79.00;;;;;;4988491;28;20019;-57
2022/11/23 11:42:12;;;;;;;4.63;2.43;;;10.20;78.00;;;;;;4997987;28;20050;-59
2022/11/23 11:44:41;;;;;;;7.15;2.90;;;10.20;78.10;;;;;;4987651;28;20420;-63
2022/11/23 11:47:32;;;;;;;5.80;2.58;;;10.20;79.40;;;;;;4993057;28;20578;-61
2022/11/23 11:50:02;;;;;;;5.45;2.85;;;10.20;78.80;;;;;;4995535;28;20514;-60
2022/11/23 11:52:35;;;;;;;5.80;2.90;;;10.30;78.50;;;;;;4989266;28;20967;-58
2022/11/23 11:55:13;;;;;;;8.95;2.83;;;10.30;78.80;;;;;;4988075;28;20041;-67
2022/11/23 11:57:54;;;;;;;6.55;2.35;;;10.30;77.90;;;;;;4990384;28;20033;-57
2022/11/23 12:00:20;;;;;;;6.05;1.50;;;10.30;74.10;;;;;;4989932;28;20113;-59
2022/11/23 12:03:18;;;;;;;9.15;3.90;;;10.40;73.40;;;;;;4989140;28;20125;-60
2022/11/23 12:05:52;;;;;;;7.72;2.80;;;10.30;74.30;;;;;;4981586;28;20046;-74
2022/11/23 12:08:51;;;;;;;4.38;2.28;;;10.30;75.80;;;;;;4993768;28;20752;-70
2022/11/23 12:11:18;;;;;;;2.00;1.00;;;10.30;76.20;;;;;;4988169;28;20022;-66
2022/11/23 12:13:45;;;;;;;6.95;1.40;;;10.40;72.50;;;;;;4996060;28;20080;-64
2022/11/23 12:16:38;;;;;;;3.55;2.25;;;10.30;74.90;;;;;;4990461;28;20042;-58
2022/11/23 12:19:27;;;;;;;6.85;1.70;;;10.30;74.80;;;;;;4992768;28;20033;-60
2022/11/23 12:22:17;;;;;;;3.75;1.20;;;10.20;76.90;;;;;;4991964;28;20126;-56
2022/11/23 12:25:14;;;;;;;3.67;2.00;;;10.20;76.20;;;;;;4991537;28;20022;-57
2022/11/23 12:28:02;;;;;;;3.33;1.27;;;10.20;75.50;;;;;;4989972;28;20670;-56
2022/11/23 12:31:02;;;;;;;4.40;1.77;;;10.10;77.30;;;;;;4992108;28;20038;-56
2022/11/23 12:33:52;;;;;;;3.65;1.45;;;10.10;81.00;;;;;;4984319;28;20656;-57
2022/11/23 12:36:46;;;;;;;4.93;1.77;;;10.00;81.40;;;;;;4995282;28;20035;-56
2022/11/23 12:39:30;;;;;;;2.80;1.52;;;9.90;83.20;;;;;;4985872;28;20034;-59
2022/11/23 12:41:58;;;;;;;4.78;1.85;;;9.90;82.90;;;;;;4996321;28;20560;-60
2022/11/23 12:44:46;;;;;;;2.78;1.45;;;9.90;83.40;;;;;;4997120;28;20034;-58
2022/11/23 12:47:33;;;;;;;8.38;2.33;;;9.90;84.10;;;;;;4987992;28;20034;-60
2022/11/23 12:50:17;;;;;;;;;;;9.90;84.10;;;;;;4991096;28;20113;-63
2022/11/23 12:53:13;;;;;;;9.00;3.83;;;9.80;84.00;;;;;;4989106;28;19963;-57
2022/11/23 12:55:50;;;;;;;9.88;3.97;;;9.80;85.00;;;;;;4997561;28;20030;-57
2022/11/23 12:58:16;;;;;;;7.57;2.35;;;9.90;85.10;;;;;;4998927;28;20503;-62
2022/11/23 13:00:50;;;;;;;5.30;2.37;;;9.90;83.90;;;;;;4999666;28;20026;-71